createdAt,value
2016-09-23T00:00:08.124Z,95.21
2016-09-23T00:01:07.787Z,95.21
2016-09-23T00:02:07.766Z,94.93
2016-09-23T00:03:08.090Z,95.7
2016-09-23T00:04:08.063Z,95.41
2016-09-23T00:05:08.074Z,95.21
2016-09-23T00:06:08.026Z,94.84
2016-09-23T00:07:08.017Z,95.03
2016-09-23T00:08:07.673Z,95.12
2016-09-23T00:09:07.984Z,95.21
2016-09-23T00:10:07.644Z,94.93
2016-09-23T00:11:07.958Z,95.03
2016-09-23T00:12:07.941Z,94.54
2016-09-23T00:13:07.609Z,94.54
2016-09-23T00:14:07.906Z,94.84
2016-09-23T00:15:07.578Z,95.21
2016-09-23T00:16:07.887Z,95.31
2016-09-23T00:17:07.860Z,95.7
2016-09-23T00:18:07.847Z,95.79
2016-09-23T00:19:07.520Z,96.22
2016-09-23T00:20:07.816Z,96.61
2016-09-23T00:21:07.806Z,96.99
2016-09-23T00:22:07.784Z,96.7
2016-09-23T00:23:07.460Z,97.47
2016-09-23T00:24:07.432Z,97.33
2016-09-23T00:25:07.413Z,97.33
2016-09-23T00:26:07.469Z,97.52
2016-09-23T00:27:07.709Z,97.09
2016-09-23T00:28:07.369Z,97.38
2016-09-23T00:29:07.671Z,96.7
2016-09-23T00:30:07.658Z,96.8
2016-09-23T00:31:07.659Z,96.8
2016-09-23T00:32:07.637Z,97.28
2016-09-23T00:33:07.613Z,97.61
2016-09-23T00:34:07.596Z,97.61
2016-09-23T00:35:07.588Z,97.61
2016-09-23T00:36:07.566Z,97.9
2016-09-23T00:37:07.547Z,97.61
2016-09-23T00:38:07.530Z,97.71
2016-09-23T00:39:07.527Z,97.42
2016-09-23T00:40:07.179Z,97.52
2016-09-23T00:41:07.500Z,97.33
2016-09-23T00:42:07.467Z,97.23
2016-09-23T00:43:07.146Z,96.56
2016-09-23T00:44:07.111Z,96.61
2016-09-23T00:45:07.416Z,96.7
2016-09-23T00:46:07.411Z,96.7
2016-09-23T00:47:07.394Z,97.09
2016-09-23T00:48:07.390Z,96.94
2016-09-23T00:49:07.362Z,97.14
2016-09-23T00:50:07.349Z,96.89
2016-09-23T00:51:07.328Z,96.61
2016-09-23T00:52:07.310Z,96.56
2016-09-23T00:53:06.977Z,96.84
2016-09-23T00:54:06.959Z,96.89
2016-09-23T00:55:07.259Z,97.09
2016-09-23T00:56:07.246Z,97.42
2016-09-23T00:57:07.238Z,98.19
2016-09-23T00:58:06.893Z,98.47
2016-09-23T00:59:07.194Z,98
2016-09-23T01:00:07.184Z,97.61
2016-09-23T01:01:06.846Z,97.23
2016-09-23T01:02:07.169Z,98.28
2016-09-23T01:03:06.834Z,98.28
2016-09-23T01:04:06.809Z,97.9
2016-09-23T01:05:07.105Z,98.38
2016-09-23T01:06:07.095Z,98.96
2016-09-23T01:07:07.068Z,99.05
2016-09-23T01:08:07.060Z,99.05
2016-09-23T01:09:07.047Z,99.29
2016-09-23T01:10:07.027Z,99.99
2016-09-23T01:11:07.015Z,99.99
2016-09-23T01:12:06.999Z,99.99
2016-09-23T01:13:06.669Z,99.99
2016-09-23T01:14:06.955Z,99.99
2016-09-23T01:15:06.953Z,99.99
2016-09-23T01:16:06.929Z,99.99
2016-09-23T01:17:06.915Z,99.99
2016-09-23T01:18:06.897Z,99.99
2016-09-23T01:19:06.881Z,99.77
2016-09-23T01:20:06.878Z,99.1
2016-09-23T01:21:06.845Z,98.52
2016-09-23T01:22:06.857Z,98.28
2016-09-23T01:23:06.811Z,98.1
2016-09-23T01:24:06.803Z,98.19
2016-09-23T01:25:06.780Z,98.19
2016-09-23T01:26:06.449Z,98.38
2016-09-23T01:27:06.752Z,98.28
2016-09-23T01:28:06.739Z,98.96
2016-09-23T01:29:06.717Z,98.96
2016-09-23T01:30:06.386Z,99.48
2016-09-23T01:31:06.686Z,99.67
2016-09-23T01:32:06.669Z,99.99
2016-09-23T01:33:06.337Z,99.99
2016-09-23T01:34:06.647Z,99.99
2016-09-23T01:35:06.302Z,99.99
2016-09-23T01:36:06.619Z,99.99
2016-09-23T01:37:06.593Z,99.99
2016-09-23T01:38:06.307Z,99.87
2016-09-23T01:39:06.579Z,99.99
2016-09-23T01:40:06.592Z,99.77
2016-09-23T01:41:06.523Z,99.87
2016-09-23T01:42:06.618Z,99.77
2016-09-23T01:43:06.173Z,99.67
2016-09-23T01:44:06.494Z,99.19
2016-09-23T01:45:06.466Z,99
2016-09-23T01:46:06.128Z,98.71
2016-09-23T01:47:06.430Z,98.81
2016-09-23T01:48:06.421Z,98.47
2016-09-23T01:49:06.398Z,98.05
2016-09-23T01:50:06.438Z,97.71
2016-09-23T01:51:06.366Z,97.61
2016-09-23T01:52:06.369Z,98
2016-09-23T01:53:06.324Z,98.14
2016-09-23T01:54:06.410Z,98.24
2016-09-23T01:55:06.306Z,98.14
2016-09-23T01:56:06.288Z,97.9
2016-09-23T01:57:06.261Z,98.1
2016-09-23T01:58:06.249Z,98.19
2016-09-23T01:59:05.925Z,98.28
2016-09-23T02:00:05.898Z,98.1
2016-09-23T02:01:06.227Z,98.19
2016-09-23T02:02:06.184Z,98.43
2016-09-23T02:03:06.167Z,98.43
2016-09-23T02:04:06.206Z,98.81
2016-09-23T02:05:05.820Z,98.62
2016-09-23T02:06:06.119Z,98.62
2016-09-23T02:07:06.198Z,98.62
2016-09-23T02:08:06.086Z,98.81
2016-09-23T02:09:05.754Z,99.1
2016-09-23T02:10:06.108Z,99.77
2016-09-23T02:11:06.038Z,99.38
2016-09-23T02:12:06.078Z,99.48
2016-09-23T02:13:06.015Z,99.38
2016-09-23T02:14:05.979Z,99.19
2016-09-23T02:15:05.658Z,99.87
2016-09-23T02:16:05.958Z,99.99
2016-09-23T02:17:05.947Z,99.99
2016-09-23T02:18:05.931Z,99.99
2016-09-23T02:19:05.585Z,99.99
2016-09-23T02:20:05.580Z,99.99
2016-09-23T02:21:05.888Z,99.99
2016-09-23T02:22:05.545Z,99.99
2016-09-23T02:23:05.858Z,99.99
2016-09-23T02:24:05.505Z,99.99
2016-09-23T02:25:05.821Z,99.99
2016-09-23T02:26:05.798Z,99.99
2016-09-23T02:27:05.467Z,99.99
2016-09-23T02:28:05.761Z,99.99
2016-09-23T02:29:05.756Z,99.99
2016-09-23T02:30:05.738Z,99.99
2016-09-23T02:31:05.724Z,99.99
2016-09-23T02:32:05.687Z,99.99
2016-09-23T02:33:05.683Z,99.99
2016-09-23T02:34:05.664Z,99.99
2016-09-23T02:35:05.657Z,99.99
2016-09-23T02:36:05.308Z,99.99
2016-09-23T02:37:05.610Z,99.99
2016-09-23T02:38:05.276Z,99.99
2016-09-23T02:39:05.583Z,99.99
2016-09-23T02:40:05.569Z,99.99
2016-09-23T02:41:05.226Z,99.99
2016-09-23T02:42:05.536Z,99.99
2016-09-23T02:43:05.185Z,99.99
2016-09-23T02:44:05.491Z,99.99
2016-09-23T02:45:05.480Z,99.99
2016-09-23T02:46:05.456Z,99.99
2016-09-23T02:47:05.124Z,99.99
2016-09-23T02:48:05.109Z,99.99
2016-09-23T02:49:05.409Z,99.99
2016-09-23T02:50:05.388Z,99.99
2016-09-23T02:51:05.367Z,99.99
2016-09-23T02:52:05.040Z,99.99
2016-09-23T02:53:05.025Z,99.99
2016-09-23T02:54:05.324Z,99.99
2016-09-23T02:55:05.312Z,99.99
2016-09-23T02:56:04.978Z,99.99
2016-09-23T02:57:05.272Z,99.99
2016-09-23T02:58:05.258Z,99.99
2016-09-23T02:59:05.247Z,99.99
2016-09-23T03:00:05.228Z,99.99
2016-09-23T03:01:04.889Z,99.99
2016-09-23T03:02:04.885Z,99.99
2016-09-23T03:03:05.198Z,99.99
2016-09-23T03:04:05.154Z,99.99
2016-09-23T03:05:05.155Z,99.99
2016-09-23T03:06:04.803Z,99.99
2016-09-23T03:07:05.114Z,99.99
2016-09-23T03:08:05.093Z,99.99
2016-09-23T03:09:05.083Z,99.99
2016-09-23T03:10:05.068Z,99.99
2016-09-23T03:11:05.043Z,99.99
2016-09-23T03:12:04.705Z,99.99
2016-09-23T03:13:05.008Z,99.99
2016-09-23T03:14:04.995Z,99.99
2016-09-23T03:15:04.653Z,99.99
2016-09-23T03:16:04.965Z,99.99
2016-09-23T03:17:04.623Z,99.99
2016-09-23T03:18:04.924Z,99.99
2016-09-23T03:19:04.583Z,99.99
2016-09-23T03:20:04.567Z,99.99
2016-09-23T03:21:04.879Z,99.99
2016-09-23T03:22:04.860Z,99.99
2016-09-23T03:23:04.847Z,99.99
2016-09-23T03:24:04.512Z,99.99
2016-09-23T03:25:04.489Z,99.99
2016-09-23T03:26:04.792Z,99.99
2016-09-23T03:27:04.779Z,99.99
2016-09-23T03:28:04.758Z,99.99
2016-09-23T03:29:04.741Z,99.99
2016-09-23T03:30:04.410Z,99.99
2016-09-23T03:31:04.392Z,99.99
2016-09-23T03:32:04.690Z,99.99
2016-09-23T03:33:04.679Z,99.99
2016-09-23T03:34:04.660Z,99.99
2016-09-23T03:35:04.643Z,99.99
2016-09-23T03:36:04.639Z,99.99
2016-09-23T03:37:04.602Z,99.99
2016-09-23T03:38:04.272Z,99.99
2016-09-23T03:39:04.252Z,99.99
2016-09-23T03:40:04.238Z,99.99
2016-09-23T03:41:04.549Z,99.99
2016-09-23T03:42:04.522Z,99.99
2016-09-23T03:43:04.189Z,99.99
2016-09-23T03:44:04.493Z,99.99
2016-09-23T03:45:04.244Z,99.99
2016-09-23T03:46:04.463Z,99.99
2016-09-23T03:47:04.441Z,99.99
2016-09-23T03:48:04.433Z,99.99
2016-09-23T03:49:04.424Z,99.99
2016-09-23T03:50:04.067Z,99.99
2016-09-23T03:51:04.372Z,99.99
2016-09-23T03:52:04.349Z,99.99
2016-09-23T03:53:04.339Z,99.99
2016-09-23T03:54:04.323Z,99.99
2016-09-23T03:55:04.414Z,99.99
2016-09-23T03:56:03.965Z,99.99
2016-09-23T03:57:04.272Z,99.99
2016-09-23T03:58:04.259Z,99.99
2016-09-23T03:59:04.238Z,99.99
2016-09-23T04:00:04.219Z,99.99
2016-09-23T04:01:03.895Z,99.99
2016-09-23T04:02:03.869Z,99.99
2016-09-23T04:03:03.859Z,99.99
2016-09-23T04:04:04.163Z,99.99
2016-09-23T04:05:04.169Z,99.99
2016-09-23T04:06:03.795Z,99.99
2016-09-23T04:07:03.783Z,99.99
2016-09-23T04:08:04.086Z,99.99
2016-09-23T04:09:04.073Z,99.99
2016-09-23T04:10:04.058Z,99.99
2016-09-23T04:11:04.166Z,99.99
2016-09-23T04:12:04.028Z,99.99
2016-09-23T04:13:04.015Z,99.99
2016-09-23T04:14:03.686Z,99.99
2016-09-23T04:15:04.042Z,99.99
2016-09-23T04:16:03.988Z,99.99
2016-09-23T04:17:03.955Z,99.99
2016-09-23T04:18:03.925Z,99.99
2016-09-23T04:19:03.998Z,99.99
2016-09-23T04:20:03.892Z,99.99
2016-09-23T04:21:03.873Z,99.99
2016-09-23T04:22:03.538Z,99.99
2016-09-23T04:23:03.937Z,99.99
2016-09-23T04:24:03.825Z,99.99
2016-09-23T04:25:03.898Z,99.99
2016-09-23T04:26:03.898Z,99.99
2016-09-23T04:27:03.457Z,99.99
2016-09-23T04:28:03.428Z,99.99
2016-09-23T04:29:03.776Z,99.99
2016-09-23T04:30:03.393Z,99.99
2016-09-23T04:31:03.716Z,99.99
2016-09-23T04:32:03.791Z,99.99
2016-09-23T04:33:03.678Z,99.99
2016-09-23T04:34:03.712Z,99.99
2016-09-23T04:35:03.649Z,99.99
2016-09-23T04:36:03.639Z,99.99
2016-09-23T04:37:03.603Z,99.99
2016-09-23T04:38:03.264Z,99.99
2016-09-23T04:39:03.247Z,99.99
2016-09-23T04:40:03.544Z,99.99
2016-09-23T04:41:03.224Z,99.99
2016-09-23T04:42:03.199Z,99.99
2016-09-23T04:43:03.498Z,99.99
2016-09-23T04:44:03.530Z,99.99
2016-09-23T04:45:03.478Z,99.99
2016-09-23T04:46:03.503Z,99.99
2016-09-23T04:47:03.434Z,99.99
2016-09-23T04:48:03.517Z,99.99
2016-09-23T04:49:03.417Z,99.99
2016-09-23T04:50:03.435Z,99.99
2016-09-23T04:51:03.362Z,99.99
2016-09-23T04:52:03.035Z,99.99
2016-09-23T04:53:03.327Z,99.99
2016-09-23T04:54:03.326Z,99.99
2016-09-23T04:55:02.989Z,99.99
2016-09-23T04:56:03.280Z,99.99
2016-09-23T04:57:02.947Z,99.99
2016-09-23T04:58:03.257Z,99.99
2016-09-23T04:59:03.232Z,99.99
2016-09-23T05:00:03.234Z,99.99
2016-09-23T05:01:03.203Z,99.99
2016-09-23T05:02:02.867Z,99.99
2016-09-23T05:03:03.161Z,99.99
2016-09-23T05:04:03.148Z,99.99
2016-09-23T05:05:03.139Z,99.99
2016-09-23T05:06:02.786Z,99.99
2016-09-23T05:07:03.115Z,99.99
2016-09-23T05:08:02.751Z,99.99
2016-09-23T05:09:02.736Z,99.99
2016-09-23T05:10:02.722Z,99.99
2016-09-23T05:11:03.027Z,99.91
2016-09-23T05:12:03.013Z,99.91
2016-09-23T05:13:03.005Z,99.33
2016-09-23T05:14:02.977Z,99.52
2016-09-23T05:15:02.951Z,99.24
2016-09-23T05:16:02.947Z,99.24
2016-09-23T05:17:02.925Z,99.24
2016-09-23T05:18:02.910Z,99.05
2016-09-23T05:19:02.896Z,99.52
2016-09-23T05:20:02.550Z,99.33
2016-09-23T05:21:02.863Z,98.76
2016-09-23T05:22:02.849Z,99.15
2016-09-23T05:23:02.825Z,98.76
2016-09-23T05:24:02.815Z,99.24
2016-09-23T05:25:02.809Z,99.72
2016-09-23T05:26:02.461Z,99.33
2016-09-23T05:27:02.452Z,99.24
2016-09-23T05:28:02.734Z,99.24
2016-09-23T05:29:02.778Z,99.43
2016-09-23T05:30:02.706Z,99.15
2016-09-23T05:31:02.702Z,99.33
2016-09-23T05:32:02.356Z,99.52
2016-09-23T05:33:02.655Z,99.43
2016-09-23T05:34:02.329Z,99.24
2016-09-23T05:35:02.628Z,99.52
2016-09-23T05:36:02.290Z,99.24
2016-09-23T05:37:02.291Z,99.33
2016-09-23T05:38:02.576Z,99.05
2016-09-23T05:39:02.249Z,99.43
2016-09-23T05:40:02.227Z,99.24
2016-09-23T05:41:02.535Z,99.62
2016-09-23T05:42:02.508Z,99.62
2016-09-23T05:43:02.503Z,98.86
2016-09-23T05:44:02.487Z,98.66
2016-09-23T05:45:02.139Z,98.91
2016-09-23T05:46:02.459Z,98.05
2016-09-23T05:47:02.428Z,98.43
2016-09-23T05:48:02.086Z,98.33
2016-09-23T05:49:02.073Z,97.95
2016-09-23T05:50:02.388Z,98.24
2016-09-23T05:51:02.368Z,98.14
2016-09-23T05:52:02.350Z,98.24
2016-09-23T05:53:02.336Z,97.85
2016-09-23T05:54:01.984Z,98.14
2016-09-23T05:55:02.299Z,97.85
2016-09-23T05:56:02.275Z,98.52
2016-09-23T05:57:02.257Z,98.71
2016-09-23T05:58:01.924Z,98.91
2016-09-23T05:59:02.237Z,98.91
2016-09-23T06:00:02.215Z,98.14
2016-09-23T06:01:02.202Z,98.05
2016-09-23T06:02:02.177Z,98.14
2016-09-23T06:03:01.848Z,97.75
2016-09-23T06:04:01.838Z,97.66
2016-09-23T06:05:01.809Z,97.8
2016-09-23T06:06:01.807Z,97.52
2016-09-23T06:07:01.788Z,96.84
2016-09-23T06:08:02.083Z,97.04
2016-09-23T06:09:02.062Z,96.66
2016-09-23T06:10:01.740Z,97.42
2016-09-23T06:11:01.714Z,97.14
2016-09-23T06:12:02.021Z,96.94
2016-09-23T06:13:01.679Z,96.18
2016-09-23T06:14:01.986Z,96.47
2016-09-23T06:15:01.658Z,95.98
2016-09-23T06:16:01.959Z,95.41
2016-09-23T06:17:01.631Z,95.51
2016-09-23T06:18:01.918Z,95.89
2016-09-23T06:19:01.917Z,95.79
2016-09-23T06:20:01.579Z,95.41
2016-09-23T06:21:01.550Z,95.22
2016-09-23T06:22:01.859Z,94.84
2016-09-23T06:23:01.526Z,94.31
2016-09-23T06:24:01.851Z,94.89
2016-09-23T06:25:01.805Z,95.03
2016-09-23T06:26:01.494Z,95.89
2016-09-23T06:27:01.771Z,96.18
2016-09-23T06:28:01.537Z,96.27
2016-09-23T06:29:01.760Z,95.7
2016-09-23T06:30:01.726Z,95.6
2016-09-23T06:31:01.717Z,95.22
2016-09-23T06:32:01.387Z,94.74
2016-09-23T06:33:01.355Z,95.41
2016-09-23T06:34:01.668Z,96.27
2016-09-23T06:35:01.324Z,96.37
2016-09-23T06:36:01.308Z,96.47
2016-09-23T06:37:01.618Z,96.47
2016-09-23T06:38:01.599Z,96.18
2016-09-23T06:39:01.277Z,96.37
2016-09-23T06:40:01.570Z,96.56
2016-09-23T06:41:01.230Z,96.08
2016-09-23T06:42:01.535Z,96.47
2016-09-23T06:43:01.519Z,96.37
2016-09-23T06:44:01.510Z,96.75
2016-09-23T06:45:01.490Z,96.84
2016-09-23T06:46:01.478Z,96.08
2016-09-23T06:47:01.458Z,96.56
2016-09-23T06:48:01.129Z,96.66
2016-09-23T06:49:01.106Z,97.33
2016-09-23T06:50:01.409Z,97.33
2016-09-23T06:51:01.077Z,97.33
2016-09-23T06:52:01.388Z,95.41
2016-09-23T06:53:01.371Z,95.17
2016-09-23T06:54:01.027Z,94.5
2016-09-23T06:55:01.331Z,92.54
2016-09-23T06:56:01.318Z,90.95
2016-09-23T06:57:01.311Z,89.79
2016-09-23T06:58:01.288Z,88.69
2016-09-23T06:59:00.952Z,87.49
2016-09-23T07:00:00.936Z,86.76
2016-09-23T07:01:01.239Z,85.03
2016-09-23T07:02:00.921Z,84.88
2016-09-23T07:03:01.208Z,84.69
2016-09-23T07:04:01.194Z,84.73
2016-09-23T07:05:01.186Z,85.27
2016-09-23T07:06:01.168Z,85.17
2016-09-23T07:07:01.161Z,84.5
2016-09-23T07:08:01.145Z,85.46
2016-09-23T07:09:00.808Z,86.18
2016-09-23T07:10:01.117Z,85.89
2016-09-23T07:11:01.111Z,85.8
2016-09-23T07:12:01.078Z,85.27
2016-09-23T07:13:01.075Z,86.38
2016-09-23T07:14:00.740Z,85.61
2016-09-23T07:15:01.040Z,84.01
2016-09-23T07:16:01.020Z,83.67
2016-09-23T07:17:01.028Z,82.17
2016-09-23T07:18:01.008Z,81.54
2016-09-23T07:19:00.999Z,80.14
2016-09-23T07:20:00.975Z,80.33
2016-09-23T07:21:00.957Z,80.38
2016-09-23T07:22:00.627Z,80.91
2016-09-23T07:23:00.611Z,81.73
2016-09-23T07:24:00.924Z,82.17
2016-09-23T07:25:00.906Z,81.79
2016-09-23T07:26:00.575Z,82.7
2016-09-23T07:27:00.880Z,83.72
2016-09-23T07:28:00.867Z,83.48
2016-09-23T07:29:00.861Z,83.52
2016-09-23T07:30:00.848Z,84.16
2016-09-23T07:31:00.832Z,84.92
2016-09-23T07:32:00.830Z,85.21
2016-09-23T07:33:00.811Z,85.46
2016-09-23T07:34:00.810Z,84.59
2016-09-23T07:35:00.469Z,83.96
2016-09-23T07:36:00.766Z,83.86
2016-09-23T07:37:00.770Z,83.91
2016-09-23T07:38:00.745Z,83.81
2016-09-23T07:39:00.740Z,83.14
2016-09-23T07:40:00.421Z,83.14
2016-09-23T07:41:00.715Z,82.85
2016-09-23T07:42:00.706Z,82.6
2016-09-23T07:43:00.375Z,81.48
2016-09-23T07:44:00.683Z,80.91
2016-09-23T07:45:00.688Z,80.43
2016-09-23T07:46:00.347Z,79.41
2016-09-23T07:47:00.659Z,78.09
2016-09-23T07:48:00.650Z,77.84
2016-09-23T07:49:00.645Z,77.65
2016-09-23T07:50:00.626Z,77.84
2016-09-23T07:51:00.626Z,77.65
2016-09-23T07:52:00.625Z,77.78
2016-09-23T07:53:00.285Z,78.77
2016-09-23T07:54:00.596Z,78.48
2016-09-23T07:55:00.583Z,77.36
2016-09-23T07:56:00.597Z,77.69
2016-09-23T07:57:00.313Z,77.59
2016-09-23T07:58:00.247Z,76.37
2016-09-23T07:59:00.564Z,75.7
2016-09-23T08:00:00.545Z,74.68
2016-09-23T08:01:00.546Z,73.2
2016-09-23T08:02:00.547Z,73.59
2016-09-23T08:03:00.226Z,74.38
2016-09-23T08:04:00.519Z,74.68
2016-09-23T08:05:00.518Z,74.77
2016-09-23T08:06:00.507Z,74.04
2016-09-23T08:07:00.514Z,74.48
2016-09-23T08:08:00.510Z,74.87
2016-09-23T08:09:00.497Z,75.79
2016-09-23T08:10:00.480Z,75.79
2016-09-23T08:11:00.160Z,77.34
2016-09-23T08:12:00.472Z,77.4
2016-09-23T08:13:00.289Z,77.11
2016-09-23T08:14:00.654Z,76.34
2016-09-23T08:15:00.465Z,74.87
2016-09-23T08:16:00.445Z,73.26
2016-09-23T08:17:00.438Z,72.36
2016-09-23T08:18:00.448Z,71.24
2016-09-23T08:19:00.424Z,69.82
2016-09-23T08:20:00.429Z,69.92
2016-09-23T08:21:00.399Z,72.05
2016-09-23T08:22:00.079Z,72.56
2016-09-23T08:23:00.396Z,71.4
2016-09-23T08:24:00.393Z,70.89
2016-09-23T08:25:00.053Z,70.21
2016-09-23T08:26:00.378Z,70.5
2016-09-23T08:27:00.049Z,70.7
2016-09-23T08:28:00.358Z,69.92
2016-09-23T08:29:00.355Z,69.57
2016-09-23T08:30:00.349Z,70.25
2016-09-23T08:31:00.025Z,70.5
2016-09-23T08:32:00.025Z,70.4
2016-09-23T08:33:00.063Z,70.4
2016-09-23T08:34:00.333Z,69.63
2016-09-23T08:35:00.327Z,68.44
2016-09-23T08:36:00.348Z,70.51
2016-09-23T08:36:59.981Z,72.5
2016-09-23T08:38:00.433Z,73.78
2016-09-23T08:39:00.301Z,74.36
2016-09-23T08:40:00.040Z,74.75
2016-09-23T08:41:00.356Z,74.65
2016-09-23T08:42:00.289Z,74.65
2016-09-23T08:42:59.952Z,74.46
2016-09-23T08:44:00.360Z,74.79
2016-09-23T08:45:00.272Z,74.79
2016-09-23T08:46:00.267Z,74.98
2016-09-23T08:47:00.340Z,75.52
2016-09-23T08:48:00.258Z,76.7
2016-09-23T08:48:59.915Z,76.86
2016-09-23T08:50:00.244Z,75.68
2016-09-23T08:50:59.903Z,74.79
2016-09-23T08:51:59.954Z,74.27
2016-09-23T08:53:00.213Z,74.4
2016-09-23T08:54:00.211Z,72.89
2016-09-23T08:55:00.198Z,71.5
2016-09-23T08:55:59.867Z,70.28
2016-09-23T08:57:00.195Z,71.02
2016-09-23T08:58:00.181Z,70.47
2016-09-23T08:59:00.173Z,71.44
2016-09-23T09:00:00.166Z,73.31
2016-09-23T09:01:00.160Z,72.98
2016-09-23T09:02:00.151Z,72.63
2016-09-23T09:02:59.873Z,73.21
2016-09-23T09:04:00.145Z,73.21
2016-09-23T09:04:59.907Z,74.18
2016-09-23T09:06:00.136Z,77.07
2016-09-23T09:07:00.118Z,76.93
2016-09-23T09:07:59.808Z,76.59
2016-09-23T09:08:59.794Z,76.39
2016-09-23T09:10:00.127Z,76.2
2016-09-23T09:11:00.100Z,77.55
2016-09-23T09:12:00.092Z,78.67
2016-09-23T09:12:59.805Z,80.43
2016-09-23T09:14:00.074Z,80.62
2016-09-23T09:15:00.073Z,79.95
2016-09-23T09:15:59.736Z,80.24
2016-09-23T09:17:00.062Z,80.72
2016-09-23T09:17:59.721Z,80.43
2016-09-23T09:18:59.715Z,80.53
2016-09-23T09:20:00.065Z,80.91
2016-09-23T09:21:00.025Z,81.88
2016-09-23T09:22:00.073Z,82.13
2016-09-23T09:23:00.006Z,81.88
2016-09-23T09:23:59.659Z,81.68
2016-09-23T09:24:59.975Z,81.59
2016-09-23T09:25:59.639Z,81.78
2016-09-23T09:26:59.998Z,81.11
2016-09-23T09:27:59.948Z,81.2
2016-09-23T09:29:00.049Z,81.68
2016-09-23T09:29:59.984Z,81.98
2016-09-23T09:30:59.966Z,81.68
2016-09-23T09:31:59.921Z,81.24
2016-09-23T09:32:59.583Z,80.57
2016-09-23T09:33:59.897Z,79.64
2016-09-23T09:34:59.888Z,79.25
2016-09-23T09:35:59.911Z,77.84
2016-09-23T09:36:59.572Z,76.24
2016-09-23T09:37:59.903Z,74.73
2016-09-23T09:38:59.843Z,73.54
2016-09-23T09:39:59.842Z,73.09
2016-09-23T09:40:59.832Z,72.61
2016-09-23T09:41:59.825Z,72.61
2016-09-23T09:42:59.804Z,72.25
2016-09-23T09:43:59.812Z,71.12
2016-09-23T09:44:59.789Z,71.06
2016-09-23T09:45:59.794Z,72.89
2016-09-23T09:46:59.784Z,72.16
2016-09-23T09:47:59.789Z,71.12
2016-09-23T09:48:59.762Z,73.13
2016-09-23T09:49:59.770Z,72.71
2016-09-23T09:50:59.756Z,72.31
2016-09-23T09:51:59.438Z,72.99
2016-09-23T09:52:59.428Z,74.02
2016-09-23T09:53:59.750Z,73.89
2016-09-23T09:54:59.411Z,72.8
2016-09-23T09:55:59.727Z,72.16
2016-09-23T09:56:59.396Z,71.12
2016-09-23T09:57:59.704Z,69.8
2016-09-23T09:58:59.710Z,69.67
2016-09-23T09:59:59.693Z,69.19
2016-09-23T10:00:59.809Z,68.6
2016-09-23T10:01:59.378Z,69.54
2016-09-23T10:02:59.675Z,72
2016-09-23T10:03:59.356Z,72.8
2016-09-23T10:04:59.355Z,74.02
2016-09-23T10:05:59.656Z,74.47
2016-09-23T10:06:59.756Z,75.44
2016-09-23T10:07:59.658Z,76.46
2016-09-23T10:08:59.324Z,77.5
2016-09-23T10:09:59.310Z,77.98
2016-09-23T10:10:59.680Z,78.52
2016-09-23T10:11:59.626Z,78.91
2016-09-23T10:12:59.755Z,79
2016-09-23T10:13:59.606Z,79.54
2016-09-23T10:14:59.285Z,80.22
2016-09-23T10:15:59.594Z,81.73
2016-09-23T10:16:59.252Z,82.84
2016-09-23T10:17:59.569Z,83.48
2016-09-23T10:18:59.242Z,83.39
2016-09-23T10:19:59.228Z,83.04
2016-09-23T10:20:59.540Z,83.33
2016-09-23T10:21:59.208Z,83.19
2016-09-23T10:22:59.203Z,82.65
2016-09-23T10:23:59.512Z,82.84
2016-09-23T10:24:59.178Z,82.84
2016-09-23T10:25:59.173Z,81.88
2016-09-23T10:26:59.159Z,79.93
2016-09-23T10:27:59.150Z,78.81
2016-09-23T10:28:59.133Z,76.56
2016-09-23T10:29:59.454Z,74.7
2016-09-23T10:30:59.443Z,73.83
2016-09-23T10:31:59.115Z,72.99
2016-09-23T10:32:59.104Z,73.48
2016-09-23T10:33:59.089Z,74.06
2016-09-23T10:34:59.402Z,73.96
2016-09-23T10:35:59.396Z,74.41
2016-09-23T10:36:59.389Z,75.15
2016-09-23T10:37:59.386Z,76.41
2016-09-23T10:38:59.396Z,78.75
2016-09-23T10:39:59.363Z,79.49
2016-09-23T10:40:59.046Z,79.78
2016-09-23T10:41:59.347Z,79.1
2016-09-23T10:42:59.271Z,78.71
2016-09-23T10:43:59.011Z,78.91
2016-09-23T10:44:59.005Z,79
2016-09-23T10:45:59.326Z,78.71
2016-09-23T10:46:58.989Z,78.23
2016-09-23T10:47:59.310Z,77.65
2016-09-23T10:48:58.970Z,78.85
2016-09-23T10:49:59.282Z,78.23
2016-09-23T10:50:59.262Z,77.88
2016-09-23T10:51:59.256Z,76.72
2016-09-23T10:52:59.251Z,75.4
2016-09-23T10:53:59.240Z,75.15
2016-09-23T10:54:59.245Z,74.12
2016-09-23T10:55:59.231Z,72.99
2016-09-23T10:56:59.209Z,72.16
2016-09-23T10:57:59.199Z,71.61
2016-09-23T10:58:58.885Z,71.12
2016-09-23T10:59:59.192Z,70.64
2016-09-23T11:00:59.178Z,70.09
2016-09-23T11:01:59.172Z,70
2016-09-23T11:02:58.847Z,71.12
2016-09-23T11:03:58.843Z,71.28
2016-09-23T11:04:59.138Z,70.51
2016-09-23T11:05:59.141Z,70.99
2016-09-23T11:06:59.129Z,71.54
2016-09-23T11:07:59.123Z,70.7
2016-09-23T11:08:59.117Z,69.6
2016-09-23T11:09:58.794Z,70.64
2016-09-23T11:10:59.092Z,72.45
2016-09-23T11:11:59.081Z,74.57
2016-09-23T11:12:58.764Z,74.24
2016-09-23T11:13:58.755Z,74.18
2016-09-23T11:14:59.069Z,73.93
2016-09-23T11:15:58.733Z,71.34
2016-09-23T11:16:59.052Z,71.12
2016-09-23T11:17:59.037Z,69.6
2016-09-23T11:18:59.023Z,67.99
2016-09-23T11:19:58.704Z,67.73
2016-09-23T11:20:58.703Z,66.69
2016-09-23T11:21:58.683Z,66.37
2016-09-23T11:22:58.998Z,67.05
2016-09-23T11:23:58.668Z,66.79
2016-09-23T11:24:58.985Z,67.15
2016-09-23T11:25:58.662Z,68.12
2016-09-23T11:26:58.974Z,68.8
2016-09-23T11:27:58.955Z,68.48
2016-09-23T11:28:58.633Z,68.67
2016-09-23T11:29:58.953Z,68.83
2016-09-23T11:30:58.935Z,69.57
2016-09-23T11:31:58.935Z,69.57
2016-09-23T11:32:58.914Z,69.86
2016-09-23T11:33:58.912Z,69.38
2016-09-23T11:34:58.589Z,70.06
2016-09-23T11:35:58.569Z,70.47
2016-09-23T11:36:59.150Z,71.48
2016-09-23T11:37:58.872Z,73.15
2016-09-23T11:38:58.861Z,72.96
2016-09-23T11:39:58.543Z,72.77
2016-09-23T11:40:58.531Z,73.28
2016-09-23T11:41:58.938Z,72.61
2016-09-23T11:42:58.838Z,73.15
2016-09-23T11:43:58.616Z,73.02
2016-09-23T11:44:58.819Z,72.73
2016-09-23T11:45:58.858Z,72.44
2016-09-23T11:46:58.802Z,71.6
2016-09-23T11:47:58.790Z,69.6
2016-09-23T11:48:58.795Z,68.12
2016-09-23T11:49:58.775Z,69.44
2016-09-23T11:50:58.441Z,69.95
2016-09-23T11:51:58.805Z,69.89
2016-09-23T11:52:58.751Z,70.83
2016-09-23T11:53:58.737Z,71.37
2016-09-23T11:54:58.737Z,70.01
2016-09-23T11:55:58.746Z,68.34
2016-09-23T11:56:58.711Z,68.41
2016-09-23T11:57:58.391Z,67.63
2016-09-23T11:58:58.702Z,66.69
2016-09-23T11:59:58.683Z,66.34
2016-09-23T12:00:58.675Z,66.69
2016-09-23T12:01:58.675Z,67.63
2016-09-23T12:02:58.661Z,66.69
2016-09-23T12:03:58.342Z,66.02
2016-09-23T12:04:58.653Z,65.11
2016-09-23T12:05:58.324Z,64.17
2016-09-23T12:06:58.634Z,63.68
2016-09-23T12:07:58.315Z,63.13
2016-09-23T12:08:58.341Z,63.32
2016-09-23T12:09:58.620Z,63.71
2016-09-23T12:10:58.597Z,63.71
2016-09-23T12:11:58.590Z,64.69
2016-09-23T12:12:58.593Z,65.43
2016-09-23T12:13:58.579Z,66.82
2016-09-23T12:14:58.582Z,68.7
2016-09-23T12:15:58.566Z,69.37
2016-09-23T12:16:58.325Z,68.08
2016-09-23T12:17:58.225Z,66.76
2016-09-23T12:18:58.555Z,66.89
2016-09-23T12:19:58.219Z,66.02
2016-09-23T12:20:58.582Z,65.27
2016-09-23T12:21:58.513Z,64.04
2016-09-23T12:22:58.186Z,63.87
2016-09-23T12:23:58.505Z,63.1
2016-09-23T12:24:58.168Z,62.64
2016-09-23T12:25:58.472Z,62.29
2016-09-23T12:26:58.634Z,62.45
2016-09-23T12:27:58.142Z,65.2
2016-09-23T12:28:58.454Z,65.4
2016-09-23T12:29:58.508Z,64.78
2016-09-23T12:30:58.492Z,64.78
2016-09-23T12:31:58.115Z,64.4
2016-09-23T12:32:58.431Z,64.49
2016-09-23T12:33:58.429Z,65.4
2016-09-23T12:34:58.422Z,64.3
2016-09-23T12:35:58.410Z,64.49
2016-09-23T12:36:58.073Z,64.59
2016-09-23T12:37:58.062Z,64.2
2016-09-23T12:38:58.376Z,63.84
2016-09-23T12:39:58.391Z,63.91
2016-09-23T12:40:58.034Z,63.36
2016-09-23T12:41:58.348Z,63.68
2016-09-23T12:42:58.345Z,62.64
2016-09-23T12:43:58.025Z,62.57
2016-09-23T12:44:58.001Z,61.87
2016-09-23T12:45:58.317Z,61.47
2016-09-23T12:46:57.996Z,60.72
2016-09-23T12:47:58.320Z,60.08
2016-09-23T12:48:58.315Z,59.52
2016-09-23T12:49:58.287Z,59.2
2016-09-23T12:50:58.287Z,59.78
2016-09-23T12:51:58.269Z,59.82
2016-09-23T12:52:57.944Z,59.27
2016-09-23T12:53:57.933Z,59.3
2016-09-23T12:54:58.246Z,60.36